Latest Weather Observations for Lake Grace

IDW60801

Issued at 9:03 am WST Wednesday 1 April 2015 (issued every 30 minutes, with the page automatically refreshed every 10 minutes)

About weather observations | Map of weather stations | Latest weather observations for WA | Other Formats
Station Details ID: 010911 Name: LAKE GRACE Lat: -33.10 Lon: 118.46 Height: 286.0 m
Data from the previous 72 hours. | See also: Recent months at Lake Grace
Date/Time
WST
Temp
°C
App
Temp
°C
Dew
Point
Rel
Hum
%
Delta-T
°C
Wind Press
QNH
hPa
Press
MSL
hPa
Rain
since 9 am
mm
Dir
 
Spd
km/h
Gust
km/h
Spd
kts
Gust
kts
01/09:00am 16.6 11.5 6.1 50 5.2 SE 22 33 12 18 1026.3 1025.6 -
01/08:30am 15.8 11.5 6.8 55 4.5 SE 19 32 10 17 1026.1 1025.4 -
01/08:00am 15.4 11.1 7.7 60 3.9 ESE 20 30 11 16 1025.8 1025.1 -
01/07:30am 15.3 11.2 8.8 65 3.4 SE 20 28 11 15 1025.6 1024.5 -
01/07:00am 14.4 11.5 9.6 73 2.5 SE 15 22 8 12 1025.4 1024.3 -
01/06:30am 14.3 11.1 10.1 76 2.2 SE 17 22 9 12 1025.0 1023.9 0.0
01/06:00am 14.3 10.8 10.1 76 2.2 SE 19 24 10 13 1024.6 1023.5 0.0
01/05:30am 14.7 11.7 10.7 77 2.1 SE 17 28 9 15 1024.4 1023.3 0.0
01/05:00am 14.8 11.4 10.6 76 2.2 SSE 19 28 10 15 1024.1 1023.1 0.0
01/04:30am 14.9 11.3 10.7 76 2.2 SE 20 28 11 15 1023.8 1022.8 0.0
01/04:00am 15.0 11.6 10.6 75 2.3 SE 19 30 10 16 1023.6 1022.6 0.0
01/03:30am 15.1 11.8 10.9 76 2.3 SE 19 28 10 15 1023.2 1022.1 0.0
01/03:00am 15.3 12.5 11.5 78 2.1 SSE 17 32 9 17 1023.1 1022.0 0.0
01/02:30am 15.3 12.4 11.1 76 2.3 SSE 17 24 9 13 1022.9 1021.8 0.0
01/02:00am 15.7 12.7 10.5 71 2.8 SSE 17 28 9 15 1022.8 1021.7 0.0
01/01:30am 15.8 12.3 10.1 69 3.0 SSE 19 30 10 16 1022.6 1021.5 0.0
01/01:00am 15.8 13.6 10.8 72 2.7 SSE 13 20 7 11 1022.5 1021.4 0.0
01/12:30am 15.7 13.3 11.5 76 2.3 SSE 15 22 8 12 1022.2 1021.1 0.0
01/12:00am 15.7 12.7 11.9 78 2.1 SSE 19 28 10 15 1022.2 1021.1 0.0
 
Date/Time
WST
Temp
°C
App
Temp
°C
Dew
Point
Rel
Hum
%
Delta-T
°C
Wind Press
QNH
hPa
Press
MSL
hPa
Rain
since 9 am
mm
Dir
 
Spd
km/h
Gust
km/h
Spd
kts
Gust
kts
31/11:30pm 15.7 12.8 12.3 80 1.9 SSE 19 26 10 14 1022.1 1021.0 0.0
31/11:00pm 15.9 13.5 12.5 80 1.9 SSE 17 24 9 13 1022.1 1021.0 0.0
31/10:30pm 16.4 14.0 12.6 78 2.1 SSE 17 28 9 15 1022.1 1021.0 0.0
31/10:00pm 16.7 13.8 13.0 79 2.1 SSE 20 33 11 18 1021.8 1020.7 0.0
31/09:30pm 17.0 13.4 12.9 77 2.3 SSE 24 32 13 17 1021.5 1020.4 0.0
31/09:00pm 17.4 13.5 13.3 77 2.3 SSE 26 39 14 21 1021.1 1020.0 0.0
31/08:30pm 18.0 15.3 13.5 75 2.6 SSE 20 35 11 19 1020.7 1019.6 0.0
31/08:00pm 19.3 16.3 13.7 70 3.2 SSE 22 35 12 19 1019.9 1018.8 0.0
31/07:30pm 20.2 16.3 13.4 65 3.9 S 26 41 14 22 1019.1 1018.0 0.0
31/07:27pm 20.4 16.9 13.4 64 4.0 S 24 41 13 22 1019.0 1017.9 0.0
31/07:00pm 21.9 20.4 10.4 48 6.4 S 9 15 5 8 1018.2 1017.1 0.0
31/06:30pm 22.5 20.2 10.3 46 6.8 S 13 19 7 10 1017.7 1016.6 0.0
31/06:00pm 23.4 19.9 10.1 43 7.4 SSW 19 26 10 14 1017.2 1016.0 0.0
31/05:30pm 24.3 20.7 9.8 40 8.0 S 19 28 10 15 1016.6 1015.5 0.0
31/05:00pm 24.8 21.4 9.1 37 8.6 SSW 17 24 9 13 1016.3 1015.2 0.0
31/04:30pm 25.7 22.8 9.5 36 9.0 SSW 15 28 8 15 1015.9 1014.8 0.0
31/04:00pm 25.3 23.2 9.6 37 8.7 SSW 11 19 6 10 1015.8 1014.7 0.0
31/03:30pm 25.6 23.2 10.2 38 8.7 WSW 13 24 7 13 1015.8 1014.7 0.0
31/03:00pm 25.5 23.2 10.5 39 8.5 SSW 13 28 7 15 1015.8 1014.7 0.0
31/02:30pm 25.4 23.4 11.6 42 7.9 SW 13 24 7 13 1015.8 1014.7 0.0
31/02:00pm 24.8 22.6 12.1 45 7.3 SW 15 24 8 13 1015.8 1014.7 0.0
31/01:30pm 24.3 22.7 12.9 49 6.7 SW 13 20 7 11 1016.0 1014.9 0.0
31/01:00pm 23.9 22.9 13.4 51 6.2 W 11 26 6 14 1016.1 1015.0 0.0
31/12:30pm 23.5 22.8 14.2 56 5.5 SW 11 15 6 8 1016.3 1015.2 0.0
31/12:00pm 22.3 21.6 14.4 61 4.7 SSW 11 20 6 11 1016.6 1015.5 0.0
31/11:30am 21.9 21.9 15.3 66 4.0 SSE 9 17 5 9 1017.0 1015.8 0.0
31/11:00am 21.3 21.5 15.8 71 3.3 SSE 9 15 5 8 1017.3 1016.2 0.0
31/10:30am 20.9 21.6 16.1 74 2.9 S 7 11 4 6 1017.5 1016.4 0.0
31/10:00am 20.1 21.0 16.7 81 2.1 SE 7 11 4 6 1017.6 1016.5 0.0
31/09:30am 18.7 19.4 17.0 90 1.0 SSE 9 11 5 6 1017.7 1016.6 0.0
31/09:00am 18.0 18.1 16.5 91 0.9 S 11 17 6 9 1017.4 1016.3 0.6
31/08:30am 18.0 18.2 16.7 92 0.8 S 11 15 6 8 1017.4 1016.3 0.6
31/08:00am 18.1 19.1 16.8 92 0.8 SSE 7 13 4 7 1017.0 1015.8 0.6
31/07:30am 18.1 19.1 16.8 92 0.8 S 7 13 4 7 1016.6 1015.5 0.6
31/07:00am 18.1 20.5 16.9 93 0.7 CALM 0 0 0 0 1016.5 1015.4 0.6
31/06:30am 17.9 20.2 16.8 93 0.7 CALM 0 0 0 0 1016.2 1015.1 0.6
31/06:00am 17.9 19.1 16.8 93 0.7 NNE 6 7 3 4 1015.8 1014.7 0.6
31/05:30am 18.1 19.1 16.8 92 0.8 NNE 7 9 4 5 1015.8 1014.7 0.6
31/05:00am 18.4 19.7 17.1 92 0.8 N 6 7 3 4 1015.7 1014.6 0.6
31/04:30am 18.5 19.8 17.0 91 0.9 NNW 6 7 3 4 1015.4 1014.3 0.2
31/04:00am 18.6 19.7 17.1 91 0.9 NNW 7 9 4 5 1015.3 1014.2 0.2
31/03:30am 18.7 19.7 16.8 89 1.2 N 7 9 4 5 1015.3 1014.2 0.2
31/03:00am 19.0 19.3 17.0 88 1.2 N 11 15 6 8 1015.6 1014.5 0.0
31/02:30am 18.9 18.9 16.3 85 1.6 NNE 11 15 6 8 1015.3 1014.2 0.0
31/02:00am 19.0 19.4 16.2 84 1.7 N 9 11 5 6 1015.9 1014.8 0.0
31/01:30am 19.5 19.0 16.0 80 2.1 N 13 17 7 9 1016.4 1015.3 0.0
31/01:00am 20.4 19.6 15.2 72 3.1 NNW 13 19 7 10 1017.0 1015.8 0.0
31/12:30am 20.5 19.0 15.3 72 3.1 NW 17 26 9 14 1017.5 1016.4 0.0
31/12:00am 20.6 17.9 15.6 73 3.0 NNW 24 35 13 19 1017.6 1016.5 0.0
 
Date/Time
WST
Temp
°C
App
Temp
°C
Dew
Point
Rel
Hum
%
Delta-T
°C
Wind Press
QNH
hPa
Press
MSL
hPa
Rain
since 9 am
mm
Dir
 
Spd
km/h
Gust
km/h
Spd
kts
Gust
kts
30/11:30pm 20.8 17.6 15.4 71 3.2 NNW 26 37 14 20 1017.6 1016.5 0.0
30/11:00pm 21.9 17.0 15.3 66 4.0 NNW 35 46 19 25 1017.5 1016.4 0.0
30/10:30pm 22.9 18.3 14.7 60 4.9 N 32 41 17 22 1017.7 1016.6 0.0
30/10:00pm 24.8 22.2 12.1 45 7.3 NNW 17 33 9 18 1017.4 1016.3 0.0
30/09:30pm 25.8 22.4 9.2 35 9.2 WNW 17 20 9 11 1016.6 1015.5 0.0
30/09:00pm 26.4 22.4 8.4 32 9.8 NW 19 26 10 14 1016.7 1015.6 0.0
30/08:30pm 26.1 24.1 8.6 33 9.6 NW 9 13 5 7 1016.3 1015.2 0.0
30/08:00pm 26.1 24.7 9.0 34 9.4 W 6 13 3 7 1015.7 1014.6 0.0
30/07:30pm 25.6 24.1 9.0 35 9.1 NW 7 9 4 5 1015.7 1014.6 0.0
30/07:00pm 26.5 24.8 8.5 32 9.9 NW 7 9 4 5 1015.5 1014.4 0.0
30/06:30pm 27.5 26.0 8.4 30 10.5 WNW 6 7 3 4 1015.2 1014.1 0.0
30/06:00pm 28.1 26.5 7.9 28 11.1 NW 6 7 3 4 1015.0 1013.9 0.0
30/05:30pm 29.5 26.8 7.4 25 12.1 NW 11 15 6 8 1015.1 1014.0 0.0
30/05:00pm 29.9 26.5 7.7 25 12.2 NW 15 20 8 11 1014.9 1013.8 0.0
30/04:30pm 30.4 26.8 8.2 25 12.4 NNW 17 24 9 13 1014.5 1013.4 0.0
30/04:00pm 30.7 26.6 7.8 24 12.7 NW 19 26 10 14 1014.5 1013.4 0.0
30/03:30pm 30.6 26.3 7.1 23 12.9 NNW 19 28 10 15 1014.5 1013.4 0.0
30/03:00pm 30.9 26.7 7.4 23 12.9 NNW 19 30 10 16 1014.5 1013.4 0.0
30/02:30pm 30.8 26.0 7.3 23 12.9 NNW 22 30 12 16 1014.5 1013.4 0.0
30/02:00pm 31.1 26.0 7.5 23 13.0 NNW 24 35 13 19 1014.7 1013.6 0.0
30/01:30pm 31.2 26.2 8.2 24 12.9 NNW 24 35 13 19 1014.9 1013.8 0.0
30/01:00pm 31.6 27.5 8.6 24 13.0 NNW 20 33 11 18 1015.3 1014.2 0.0
30/12:30pm 31.2 26.0 8.8 25 12.6 NNW 26 39 14 21 1015.8 1014.7 0.0
30/12:00pm 30.3 24.8 9.2 27 11.9 NNW 28 39 15 21 1016.3 1015.2 0.0
30/11:30am 30.0 24.6 9.5 28 11.6 NNW 28 41 15 22 1016.6 1015.5 0.0
30/11:00am 29.2 23.7 9.3 29 11.2 NNW 28 39 15 21 1017.2 1016.0 0.0
30/10:30am 28.5 22.6 9.2 30 10.8 N 30 39 16 21 1017.5 1016.4 0.0
30/10:00am 27.5 22.4 9.3 32 10.2 N 26 37 14 20 1017.7 1016.6 0.0
30/09:30am 26.2 21.2 9.5 35 9.3 N 26 33 14 18 1018.1 1017.0 0.0
30/09:00am 24.6 20.3 9.3 38 8.4 N 22 32 12 17 1018.4 1017.3 0.0
30/08:30am 23.8 20.6 9.8 41 7.7 NNE 17 28 9 15 1018.5 1017.4 0.0
30/08:00am 22.7 19.8 9.5 43 7.2 NNE 15 24 8 13 1018.5 1017.4 0.0
30/07:30am 20.2 17.6 9.2 49 5.9 NNE 13 19 7 10 1018.4 1017.3 0.0
30/07:00am 17.5 15.9 8.9 57 4.5 NNE 7 11 4 6 1018.4 1017.3 0.0
30/06:30am 14.9 13.3 8.2 64 3.4 N 6 7 3 4 1018.4 1017.3 0.0
30/06:00am 14.5 13.0 8.5 67 3.1 NNE 6 7 3 4 1018.3 1017.2 0.0
30/05:30am 14.9 13.4 8.6 66 3.2 N 6 6 3 3 1018.1 1017.0 0.0
30/05:00am 14.8 13.4 8.7 67 3.1 N 6 6 3 3 1018.0 1016.9 0.0
30/04:30am 14.8 14.5 8.7 67 3.1 CALM 0 0 0 0 1017.7 1016.6 0.0
30/04:00am 15.3 15.0 8.8 65 3.4 CALM 0 0 0 0 1017.6 1016.5 0.0
30/03:30am 15.6 14.0 8.6 63 3.6 N 7 11 4 6 1017.7 1016.6 0.0
30/03:00am 16.6 14.7 9.1 61 3.9 N 9 13 5 7 1017.7 1016.6 0.0
30/02:30am 19.3 16.5 8.6 50 5.6 NE 13 19 7 10 1017.7 1016.6 0.0
30/02:00am 19.1 16.6 9.6 54 5.1 NE 13 20 7 11 1017.9 1016.8 0.0
30/01:30am 18.4 15.0 10.7 61 4.2 ENE 19 24 10 13 1018.0 1016.9 0.0
30/01:00am 18.9 16.4 11.0 60 4.3 ENE 15 24 8 13 1018.1 1017.0 0.0
30/12:30am 18.7 17.6 10.5 59 4.5 SE 7 13 4 7 1018.3 1017.2 0.0
30/12:00am 19.1 16.5 10.6 58 4.6 ENE 15 20 8 11 1018.5 1017.4 0.0
 
Date/Time
WST
Temp
°C
App
Temp
°C
Dew
Point
Rel
Hum
%
Delta-T
°C
Wind Press
QNH
hPa
Press
MSL
hPa
Rain
since 9 am
mm
Dir
 
Spd
km/h
Gust
km/h
Spd
kts
Gust
kts
29/11:30pm 19.7 17.3 10.1 54 5.2 ENE 13 19 7 10 1018.6 1017.5 0.0
29/11:00pm 19.0 17.4 8.9 52 5.3 ESE 7 11 4 6 1018.9 1017.8 0.0
29/10:30pm 19.3 16.7 7.7 47 6.0 ESE 11 17 6 9 1019.1 1018.0 0.0
29/10:00pm 18.6 18.4 9.1 54 5.0 CALM 0 0 0 0 1019.2 1018.1 0.0
29/09:30pm 19.4 19.1 8.7 50 5.7 CALM 0 0 0 0 1019.4 1018.3 0.0
29/09:00pm 19.3 19.0 8.6 50 5.6 CALM 0 0 0 0 1019.6 1018.5 0.0
29/08:30pm 20.3 19.8 8.0 45 6.5 CALM 0 0 0 0 1019.6 1018.5 0.0
29/08:00pm 21.3 21.0 8.6 44 6.8 CALM 0 0 0 0 1019.5 1018.4 0.0
29/07:30pm 22.3 21.9 8.4 41 7.4 CALM 0 0 0 0 1019.3 1018.2 0.0
29/07:00pm 23.3 22.8 7.8 37 8.2 CALM 0 0 0 0 1019.3 1018.2 0.0
29/06:30pm 24.4 23.9 8.0 35 8.8 CALM 0 0 0 0 1019.0 1017.9 0.0
29/06:00pm 26.2 24.3 7.7 31 10.0 N 7 11 4 6 1018.9 1017.8 0.0
29/05:30pm 27.6 24.9 7.5 28 10.9 N 11 15 6 8 1018.8 1017.7 0.0
29/05:00pm 28.1 25.5 7.9 28 11.0 NNW 11 17 6 9 1018.7 1017.6 0.0
29/04:30pm 28.1 25.0 7.4 27 11.2 NNE 13 22 7 12 1018.7 1017.6 0.0
29/04:00pm 28.7 26.4 7.3 26 11.6 WNW 9 15 5 8 1018.7 1017.6 0.0
29/03:30pm 28.6 26.2 7.2 26 11.6 N 9 19 5 10 1018.8 1017.7 0.0
29/03:00pm 28.3 26.0 7.5 27 11.3 NW 9 15 5 8 1018.9 1017.8 0.0
29/02:30pm 28.5 24.7 7.7 27 11.4 NW 17 24 9 13 1019.1 1018.0 0.0
29/02:00pm 28.0 25.5 8.3 29 10.8 NW 11 22 6 12 1019.1 1018.0 0.0
29/01:30pm 28.0 25.5 8.3 29 10.9 NNW 11 20 6 11 1019.4 1018.3 0.0
29/01:00pm 27.2 24.2 7.6 29 10.6 NW 13 19 7 10 1019.8 1018.7 0.0
29/12:30pm 26.9 24.5 8.8 32 10.0 NW 11 19 6 10 1020.2 1019.1 0.0
29/12:00pm 27.0 24.3 8.9 32 10.0 N 13 20 7 11 1020.8 1019.7 0.0
29/11:30am 25.6 22.9 10.2 38 8.7 N 15 26 8 14 1021.3 1020.2 0.0
29/11:00am 25.1 22.9 12.0 44 7.6 N 15 24 8 13 1021.8 1020.7 0.0
29/10:30am 23.5 21.8 12.5 50 6.4 NNE 13 24 7 13 1022.4 1021.3 0.0
29/10:00am 21.8 19.1 11.8 53 5.7 NNE 17 22 9 12 1022.7 1021.6 0.0
29/09:30am 20.7 19.3 13.4 63 4.2 NNE 13 20 7 11 1023.0 1021.9 0.0

Other Formats:

Comma delimited format used in spreadsheet applications
http://www.bom.gov.au/fwo/IDW60801/IDW60801.95637.axf

JavaScript Object Notation format (JSON) in row-major order
http://www.bom.gov.au/fwo/IDW60801/IDW60801.95637.json